Aeroporto :
LOGIN :

Iscrizione | Disclaimer

   EN    FR    IT 

 










Sommario :    VFR   VFR Marginale   IFR   IFR Intensivo   IFR Molto Intensivo
Visibilità : 
Base nubi : 
>= 8 km
>= 3000ft
5 / 8 km
1000 / 3000 ft
1500m / 5 km
500 / 1000 ft
800 / 1500m
200 / 500 ft
< 800m
< 200 ft
Simboli :   Temporali  Nebbia  Neve Forte  Precipitazioni Forti  Vento > 20 kt
SIGMETs :   Varie  Temporali  Ghiacco  Turbolenza  Onda orograficha  Ceneri Vulcaniche







- Altitudine del aeroporto : 13 ft
- Codice IATA : SNR
- Carte del aeroporto


LFRZ - St-Nazaire

ULTIMO METAR :
  • 240400Z AUTO 36006KT CAVOK 10/07 Q1017 NOSIG

METARs OBSOLETI :
  • 240330Z AUTO 36007KT CAVOK 10/07 Q1017 NOSIG
  • 240300Z AUTO 35004KT CAVOK 10/07 Q1017 NOSIG
  • 240230Z AUTO 01007KT CAVOK 10/07 Q1017 NOSIG
  • 240200Z AUTO 02006KT 350V050 CAVOK 11/07 Q1017 NOSIG
  • 240130Z AUTO 01008KT CAVOK 11/08 Q1017 NOSIG

TAF TAF LFRZ
Valido dal 24 a 00 ore il 25 a 00 ore UTC


232300Z 2400/2424 36005KT CAVOK
PROB30
TEMPO 2412/2419 -SHRA BKN030TCU
Nessun NOTAM noto per questo aeroporto.



MetMap, La meteo Aeronautica in un colpo d'occhio ! - Copyright ORBIFLY Dicembre 2007 - Disclaimer

ORBIFLY MET'MAP TEAM :

Programmazione e sviluppo : Alexandra Zaïnal
Concezione e sviluppo : Baudouin d'Aumeries
Co-Programmazione e sviluppo : Marc-Olivier Méhu
Supporto tecnico e logistico : Manuel Goepfert
Aiuto per la traduzione : Arnaldo La Scala

Contatto : metmap@orbifly.com




FONTI E CREDITI :

   NOAA